Terminal Aerodrome Forecast
Issued by NWS Tuscon, AZ

Home | Current Version | Previous Version | Text Only | Print | Product List | Glossary On
Versions: 1 2 3 4 5 6 7 8 9 10 11 12 13 14 15 16 17 18 19
000
FTUS45 KTWC 201724
TAFDUG
TAF
KDUG 201724Z 2018/2118 VRB04KT P6SM SCT050 BKN150
     FM201900 21010KT P6SM VCTS SCT060CB BKN120
     FM202300 14006KT P6SM SCT060 BKN150
     FM210600 VRB05KT P6SM FEW060 BKN150=

USA.gov is the U.S. government's official web portal to all federal, state and local government web resources and services.